^^
Saratoga-Weather Station Historical Data
Daily Summary for November 20, 2020 Units:  Both    English   Metric
Daily Weekly Monthly Yearly Custom
  High: Low: Average:
Temperature: 45.5 °F /  7.5 °C 30 °F /  -1.1 °C 38.7 °F /  3.7 °C
Dew Point: 41.7 °F /  5.4 °C 28.6 °F /  -1.9 °C 35.2 °F /  1.8 °C
Humidity: 96% 71% 88%
Wind Speed: 7mph /  11.3km/h - 1.1mph /  1.7km/h
Wind Gust: 8mph /  12.9km/h - -
Wind- - WSW
Pressure: 30.6 in /  1036.2 hPa 30.5 in /  1031.2 hPa -
Precipitation: 0 in /  0.0 mm    
Historical Graphs
 
 
Tabular Data for November 20, 2020
Time Temperature Dew Point Pressure Wind Wind Speed Wind Gust Humidity Rainfall Rate (Hourly) solar
00:04 44.2 °F /  6.8 °C 41.7 °F /  5.4 °C 30.5in /  1031.2hPa WNW 4mph /  6.4km/h 8mph /  12.9km/h 91% 0in /  0.0mm 0 W/m2
00:09 44.2 °F /  6.8 °C 41.5 °F /  5.3 °C 30.5in /  1031.2hPa West 2.9mph /  4.7km/h 6mph /  9.7km/h 90% 0in /  0.0mm 0 W/m2
00:14 44.1 °F /  6.7 °C 41.4 °F /  5.2 °C 30.5in /  1031.2hPa WNW 2mph /  3.2km/h 8mph /  12.9km/h 90% 0in /  0.0mm 0 W/m2
00:19 43.9 °F /  6.6 °C 41.2 °F /  5.1 °C 30.5in /  1031.2hPa West 2.9mph /  4.7km/h 8mph /  12.9km/h 90% 0in /  0.0mm 0 W/m2
00:24 44.1 °F /  6.7 °C 41 °F /  5 °C 30.5in /  1031.5hPa WNW 4mph /  6.4km/h 8mph /  12.9km/h 89% 0in /  0.0mm 0 W/m2
00:29 44.1 °F /  6.7 °C 41 °F /  5 °C 30.5in /  1031.5hPa WNW 2.9mph /  4.7km/h 7mph /  11.3km/h 89% 0in /  0.0mm 0 W/m2
00:34 44.1 °F /  6.7 °C 40.8 °F /  4.9 °C 30.5in /  1031.5hPa West 4mph /  6.4km/h 7mph /  11.3km/h 88% 0in /  0.0mm 0 W/m2
00:39 44.1 °F /  6.7 °C 40.8 °F /  4.9 °C 30.5in /  1031.8hPa West 4mph /  6.4km/h 7mph /  11.3km/h 88% 0in /  0.0mm 0 W/m2
00:44 44.1 °F /  6.7 °C 40.8 °F /  4.9 °C 30.5in /  1031.8hPa WNW 2mph /  3.2km/h 4mph /  6.4km/h 88% 0in /  0.0mm 0 W/m2
00:49 44.1 °F /  6.7 °C 40.8 °F /  4.9 °C 30.5in /  1031.8hPa WNW 6.9mph /  11.1km/h 7mph /  11.3km/h 88% 0in /  0.0mm 0 W/m2
00:54 44.1 °F /  6.7 °C 40.8 °F /  4.9 °C 30.5in /  1031.8hPa West 6mph /  9.7km/h 8mph /  12.9km/h 88% 0in /  0.0mm 0 W/m2
00:59 43.9 °F /  6.6 °C 40.3 °F /  4.6 °C 30.5in /  1031.8hPa WSW 2.9mph /  4.7km/h 8mph /  12.9km/h 87% 0in /  0.0mm 0 W/m2
01:04 43.9 °F /  6.6 °C 39.9 °F /  4.4 °C 30.5in /  1031.8hPa WNW 2.9mph /  4.7km/h 8mph /  12.9km/h 86% 0in /  0.0mm 0 W/m2
01:09 43.5 °F /  6.4 °C 39.9 °F /  4.4 °C 30.5in /  1031.8hPa West 2.9mph /  4.7km/h 6mph /  9.7km/h 87% 0in /  0.0mm 0 W/m2
01:14 43.3 °F /  6.3 °C 39.7 °F /  4.3 °C 30.5in /  1032.2hPa West 0.9mph /  1.4km/h 8mph /  12.9km/h 87% 0in /  0.0mm 0 W/m2
01:19 43.2 °F /  6.2 °C 39.6 °F /  4.2 °C 30.5in /  1031.8hPa West 0.9mph /  1.4km/h 2mph /  3.2km/h 87% 0in /  0.0mm 0 W/m2
01:24 43 °F /  6.1 °C 39.4 °F /  4.1 °C 30.5in /  1032.2hPa West 2mph /  3.2km/h 4mph /  6.4km/h 87% 0in /  0.0mm 0 W/m2
01:29 42.6 °F /  5.9 °C 39.4 °F /  4.1 °C 30.5in /  1032.2hPa WNW 0.9mph /  1.4km/h 2mph /  3.2km/h 88% 0in /  0.0mm 0 W/m2
01:34 42.4 °F /  5.8 °C 39.2 °F /  4 °C 30.5in /  1032.2hPa Calm     88% 0in /  0.0mm 0 W/m2
01:39 42.3 °F /  5.7 °C 39 °F /  3.9 °C 30.5in /  1032.2hPa WNW 0.9mph /  1.4km/h 2mph /  3.2km/h 88% 0in /  0.0mm 0 W/m2
01:44 41.7 °F /  5.4 °C 38.7 °F /  3.7 °C 30.5in /  1032.2hPa WNW 0.9mph /  1.4km/h 1mph /  1.6km/h 89% 0in /  0.0mm 0 W/m2
01:49 41.5 °F /  5.3 °C 38.8 °F /  3.8 °C 30.5in /  1032.2hPa WNW 2mph /  3.2km/h 2mph /  3.2km/h 90% 0in /  0.0mm 0 W/m2
01:54 41.4 °F /  5.2 °C 38.7 °F /  3.7 °C 30.5in /  1032.2hPa WNW 0.9mph /  1.4km/h 2mph /  3.2km/h 90% 0in /  0.0mm 0 W/m2
01:59 41.2 °F /  5.1 °C 38.5 °F /  3.6 °C 30.5in /  1032.2hPa West 2mph /  3.2km/h 3mph /  4.8km/h 90% 0in /  0.0mm 0 W/m2
02:04 41.2 °F /  5.1 °C 38.8 °F /  3.8 °C 30.5in /  1032.2hPa West 4mph /  6.4km/h 5mph /  8km/h 91% 0in /  0.0mm 0 W/m2
02:09 41.2 °F /  5.1 °C 38.8 °F /  3.8 °C 30.5in /  1032.2hPa WSW 2.9mph /  4.7km/h 4mph /  6.4km/h 91% 0in /  0.0mm 0 W/m2
02:14 41.2 °F /  5.1 °C 38.8 °F /  3.8 °C 30.5in /  1032.2hPa WSW 0.9mph /  1.4km/h 5mph /  8km/h 91% 0in /  0.0mm 0 W/m2
02:19 41 °F /  5 °C 38.7 °F /  3.7 °C 30.5in /  1032.2hPa WSW 2.9mph /  4.7km/h 5mph /  8km/h 91% 0in /  0.0mm 0 W/m2
02:24 40.8 °F /  4.9 °C 38.5 °F /  3.6 °C 30.5in /  1032.2hPa West 2.9mph /  4.7km/h 7mph /  11.3km/h 91% 0in /  0.0mm 0 W/m2
02:29 40.8 °F /  4.9 °C 38.5 °F /  3.6 °C 30.5in /  1032.2hPa West 4mph /  6.4km/h 6mph /  9.7km/h 91% 0in /  0.0mm 0 W/m2
02:34 40.6 °F /  4.8 °C 38.3 °F /  3.5 °C 30.5in /  1032.2hPa WSW 4mph /  6.4km/h 8mph /  12.9km/h 91% 0in /  0.0mm 0 W/m2
02:39 40.6 °F /  4.8 °C 38.3 °F /  3.5 °C 30.5in /  1032.5hPa WSW 2.9mph /  4.7km/h 6mph /  9.7km/h 91% 0in /  0.0mm 0 W/m2
02:44 40.6 °F /  4.8 °C 38.3 °F /  3.5 °C 30.5in /  1032.5hPa WNW 0.9mph /  1.4km/h 4mph /  6.4km/h 91% 0in /  0.0mm 0 W/m2
02:49 40.6 °F /  4.8 °C 38.3 °F /  3.5 °C 30.5in /  1032.5hPa West 0.9mph /  1.4km/h 6mph /  9.7km/h 91% 0in /  0.0mm 0 W/m2
02:54 40.5 °F /  4.7 °C 38.1 °F /  3.4 °C 30.5in /  1032.2hPa West 2mph /  3.2km/h 4mph /  6.4km/h 91% 0in /  0.0mm 0 W/m2
02:59 40.5 °F /  4.7 °C 38.1 °F /  3.4 °C 30.5in /  1032.2hPa Calm   6mph /  9.7km/h 91% 0in /  0.0mm 0 W/m2
03:04 40.3 °F /  4.6 °C 37.9 °F /  3.3 °C 30.5in /  1032.2hPa Calm   2mph /  3.2km/h 91% 0in /  0.0mm 0 W/m2
03:10 39.9 °F /  4.4 °C 37.6 °F /  3.1 °C 30.5in /  1032.2hPa Calm   2mph /  3.2km/h 91% 0in /  0.0mm 0 W/m2
03:15 39.7 °F /  4.3 °C 37.4 °F /  3 °C 30.5in /  1032.2hPa West 0.9mph /  1.4km/h 2mph /  3.2km/h 91% 0in /  0.0mm 0 W/m2
03:20 39.6 °F /  4.2 °C 37.4 °F /  3 °C 30.5in /  1032.2hPa West 0.9mph /  1.4km/h 2mph /  3.2km/h 92% 0in /  0.0mm 0 W/m2
03:25 39.2 °F /  4 °C 37 °F /  2.8 °C 30.5in /  1032.5hPa West 0.9mph /  1.4km/h 1mph /  1.6km/h 92% 0in /  0.0mm 0 W/m2
03:30 39 °F /  3.9 °C 36.9 °F /  2.7 °C 30.5in /  1032.2hPa West 0.9mph /  1.4km/h 2mph /  3.2km/h 92% 0in /  0.0mm 0 W/m2
03:35 38.8 °F /  3.8 °C 36.7 °F /  2.6 °C 30.5in /  1032.5hPa West 0.9mph /  1.4km/h 2mph /  3.2km/h 92% 0in /  0.0mm 0 W/m2
03:40 38.7 °F /  3.7 °C 36.9 °F /  2.7 °C 30.5in /  1032.5hPa West 0.9mph /  1.4km/h 3mph /  4.8km/h 93% 0in /  0.0mm 0 W/m2
03:45 38.7 °F /  3.7 °C 36.9 °F /  2.7 °C 30.5in /  1032.2hPa Calm   1mph /  1.6km/h 93% 0in /  0.0mm 0 W/m2
03:50 38.5 °F /  3.6 °C 36.7 °F /  2.6 °C 30.5in /  1032.5hPa WSW 2mph /  3.2km/h 4mph /  6.4km/h 93% 0in /  0.0mm 0 W/m2
03:55 38.5 °F /  3.6 °C 36.7 °F /  2.6 °C 30.5in /  1032.5hPa WSW 0.9mph /  1.4km/h 2mph /  3.2km/h 93% 0in /  0.0mm 0 W/m2
04:00 38.3 °F /  3.5 °C 36.5 °F /  2.5 °C 30.5in /  1032.5hPa WSW 0.9mph /  1.4km/h 4mph /  6.4km/h 93% 0in /  0.0mm 0 W/m2
04:05 38.3 °F /  3.5 °C 36.7 °F /  2.6 °C 30.5in /  1032.5hPa Calm   2mph /  3.2km/h 94% 0in /  0.0mm 0 W/m2
04:10 38.3 °F /  3.5 °C 36.7 °F /  2.6 °C 30.5in /  1032.5hPa WSW 0.9mph /  1.4km/h 2mph /  3.2km/h 94% 0in /  0.0mm 0 W/m2
04:15 38.5 °F /  3.6 °C 36.9 °F /  2.7 °C 30.5in /  1032.5hPa WSW 2.9mph /  4.7km/h 3mph /  4.8km/h 94% 0in /  0.0mm 0 W/m2
04:20 38.3 °F /  3.5 °C 36.7 °F /  2.6 °C 30.5in /  1032.5hPa West 2mph /  3.2km/h 2mph /  3.2km/h 94% 0in /  0.0mm 0 W/m2
04:25 38.3 °F /  3.5 °C 36.7 °F /  2.6 °C 30.5in /  1032.5hPa Calm   3mph /  4.8km/h 94% 0in /  0.0mm 0 W/m2
04:30 38.3 °F /  3.5 °C 36.7 °F /  2.6 °C 30.5in /  1032.5hPa Calm   3mph /  4.8km/h 94% 0in /  0.0mm 0 W/m2
04:35 38.3 °F /  3.5 °C 36.7 °F /  2.6 °C 30.5in /  1032.5hPa WSW 0.9mph /  1.4km/h 2mph /  3.2km/h 94% 0in /  0.0mm 0 W/m2
04:40 38.3 °F /  3.5 °C 36.7 °F /  2.6 °C 30.5in /  1032.5hPa West 0.9mph /  1.4km/h 3mph /  4.8km/h 94% 0in /  0.0mm 0 W/m2
04:45 38.5 °F /  3.6 °C 36.9 °F /  2.7 °C 30.5in /  1032.5hPa WSW 0.9mph /  1.4km/h 3mph /  4.8km/h 94% 0in /  0.0mm 0 W/m2
04:50 38.7 °F /  3.7 °C 37 °F /  2.8 °C 30.5in /  1032.5hPa West 2mph /  3.2km/h 4mph /  6.4km/h 94% 0in /  0.0mm 0 W/m2
04:55 38.7 °F /  3.7 °C 36.9 °F /  2.7 °C 30.5in /  1032.5hPa West 2.9mph /  4.7km/h 4mph /  6.4km/h 93% 0in /  0.0mm 0 W/m2
05:00 38.8 °F /  3.8 °C 37 °F /  2.8 °C 30.5in /  1032.5hPa SW 2.9mph /  4.7km/h 6mph /  9.7km/h 93% 0in /  0.0mm 0 W/m2
05:05 38.8 °F /  3.8 °C 37 °F /  2.8 °C 30.5in /  1032.5hPa WSW 0.9mph /  1.4km/h 5mph /  8km/h 93% 0in /  0.0mm 0 W/m2
05:10 39 °F /  3.9 °C 37.2 °F /  2.9 °C 30.5in /  1032.5hPa WNW 2mph /  3.2km/h 6mph /  9.7km/h 93% 0in /  0.0mm 0 W/m2
05:15 39 °F /  3.9 °C 36.9 °F /  2.7 °C 30.5in /  1032.5hPa WNW 2mph /  3.2km/h 3mph /  4.8km/h 92% 0in /  0.0mm 0 W/m2
05:20 38.7 °F /  3.7 °C 36.5 °F /  2.5 °C 30.5in /  1032.8hPa WNW 2mph /  3.2km/h 5mph /  8km/h 92% 0in /  0.0mm 0 W/m2
05:25 38.1 °F /  3.4 °C 36 °F /  2.2 °C 30.5in /  1032.5hPa WNW 2.9mph /  4.7km/h 3mph /  4.8km/h 92% 0in /  0.0mm 0 W/m2
05:30 37.8 °F /  3.2 °C 35.6 °F /  2 °C 30.5in /  1032.8hPa West 2mph /  3.2km/h 3mph /  4.8km/h 92% 0in /  0.0mm 0 W/m2
05:35 37.6 °F /  3.1 °C 35.4 °F /  1.9 °C 30.5in /  1032.8hPa West 0.9mph /  1.4km/h 2mph /  3.2km/h 92% 0in /  0.0mm 0 W/m2
05:40 37.2 °F /  2.9 °C 35.4 °F /  1.9 °C 30.5in /  1032.8hPa West 2mph /  3.2km/h 2mph /  3.2km/h 93% 0in /  0.0mm 0 W/m2
05:45 37 °F /  2.8 °C 35.2 °F /  1.8 °C 30.5in /  1032.8hPa West 0.9mph /  1.4km/h 2mph /  3.2km/h 93% 0in /  0.0mm 0 W/m2
05:50 37 °F /  2.8 °C 35.2 °F /  1.8 °C 30.5in /  1032.8hPa West 2mph /  3.2km/h 2mph /  3.2km/h 93% 0in /  0.0mm 0 W/m2
05:55 36.9 °F /  2.7 °C 35.1 °F /  1.7 °C 30.5in /  1032.8hPa Calm     93% 0in /  0.0mm 0 W/m2
06:00 36.9 °F /  2.7 °C 35.2 °F /  1.8 °C 30.5in /  1032.8hPa Calm     94% 0in /  0.0mm 0 W/m2
06:05 36.9 °F /  2.7 °C 35.2 °F /  1.8 °C 30.5in /  1032.8hPa Calm     94% 0in /  0.0mm 0 W/m2
06:10 36.7 °F /  2.6 °C 35.1 °F /  1.7 °C 30.5in /  1032.8hPa Calm     94% 0in /  0.0mm 0 W/m2
06:15 36.7 °F /  2.6 °C 35.1 °F /  1.7 °C 30.5in /  1032.8hPa Calm     94% 0in /  0.0mm 0 W/m2
06:20 36.5 °F /  2.5 °C 34.9 °F /  1.6 °C 30.5in /  1032.8hPa Calm     94% 0in /  0.0mm 0 W/m2
06:25 36.5 °F /  2.5 °C 34.9 °F /  1.6 °C 30.5in /  1032.8hPa Calm     94% 0in /  0.0mm 0 W/m2
06:30 36.3 °F /  2.4 °C 34.7 °F /  1.5 °C 30.5in /  1032.8hPa West 2mph /  3.2km/h 2mph /  3.2km/h 94% 0in /  0.0mm 0 W/m2
06:35 36.3 °F /  2.4 °C 34.7 °F /  1.5 °C 30.5in /  1033.2hPa ESE 2.9mph /  4.7km/h 3mph /  4.8km/h 94% 0in /  0.0mm 0 W/m2
06:40 36.1 °F /  2.3 °C 34.5 °F /  1.4 °C 30.5in /  1033.2hPa ESE 0.9mph /  1.4km/h 2mph /  3.2km/h 94% 0in /  0.0mm 0 W/m2
06:45 36.1 °F /  2.3 °C 34.5 °F /  1.4 °C 30.5in /  1033.5hPa Calm   1mph /  1.6km/h 94% 0in /  0.0mm 0 W/m2
06:50 36 °F /  2.2 °C 34.7 °F /  1.5 °C 30.5in /  1033.5hPa ESE 0.9mph /  1.4km/h 1mph /  1.6km/h 95% 0in /  0.0mm 0 W/m2
06:55 36 °F /  2.2 °C 34.7 °F /  1.5 °C 30.5in /  1033.5hPa Calm   1mph /  1.6km/h 95% 0in /  0.0mm 0 W/m2
07:00 36 °F /  2.2 °C 34.7 °F /  1.5 °C 30.5in /  1033.5hPa Calm     95% 0in /  0.0mm 0 W/m2
07:05 36 °F /  2.2 °C 34.7 °F /  1.5 °C 30.5in /  1033.5hPa SW 0.9mph /  1.4km/h 1mph /  1.6km/h 95% 0in /  0.0mm 0 W/m2
07:10 36.3 °F /  2.4 °C 35.1 °F /  1.7 °C 30.5in /  1033.5hPa West 2.9mph /  4.7km/h 5mph /  8km/h 95% 0in /  0.0mm 0 W/m2
07:15 36.9 °F /  2.7 °C 35.6 °F /  2 °C 30.5in /  1033.5hPa WSW 0.9mph /  1.4km/h 3mph /  4.8km/h 95% 0in /  0.0mm 0 W/m2
07:20 37 °F /  2.8 °C 35.8 °F /  2.1 °C 30.5in /  1033.9hPa Calm   5mph /  8km/h 95% 0in /  0.0mm 0 W/m2
07:25 37 °F /  2.8 °C 35.8 °F /  2.1 °C 30.5in /  1033.9hPa South 2.9mph /  4.7km/h 3mph /  4.8km/h 95% 0in /  0.0mm 0 W/m2
07:30 36.9 °F /  2.7 °C 35.6 °F /  2 °C 30.5in /  1033.9hPa SE 0.9mph /  1.4km/h 2mph /  3.2km/h 95% 0in /  0.0mm 0 W/m2
07:35 36.5 °F /  2.5 °C 35.2 °F /  1.8 °C 30.5in /  1033.9hPa Calm   2mph /  3.2km/h 95% 0in /  0.0mm 0 W/m2
07:40 36.3 °F /  2.4 °C 35.1 °F /  1.7 °C 30.5in /  1033.9hPa Calm   1mph /  1.6km/h 95% 0in /  0.0mm 0 W/m2
07:45 36.3 °F /  2.4 °C 35.1 °F /  1.7 °C 30.5in /  1033.9hPa Calm   2mph /  3.2km/h 95% 0in /  0.0mm 0 W/m2
07:50 36.3 °F /  2.4 °C 35.1 °F /  1.7 °C 30.5in /  1033.9hPa Calm   2mph /  3.2km/h 95% 0in /  0.0mm 0 W/m2
07:55 36.1 °F /  2.3 °C 34.9 °F /  1.6 °C 30.5in /  1033.9hPa Calm     95% 0in /  0.0mm 0 W/m2
08:00 36.1 °F /  2.3 °C 34.9 °F /  1.6 °C 30.5in /  1033.9hPa Calm   2mph /  3.2km/h 95% 0in /  0.0mm 5 W/m2
08:05 36.1 °F /  2.3 °C 34.9 °F /  1.6 °C 30.5in /  1033.9hPa Calm     95% 0in /  0.0mm 9 W/m2
08:10 36 °F /  2.2 °C 34.7 °F /  1.5 °C 30.5in /  1034.2hPa Calm     95% 0in /  0.0mm 11 W/m2
08:15 36 °F /  2.2 °C 34.7 °F /  1.5 °C 30.5in /  1034.2hPa SW 0.9mph /  1.4km/h 2mph /  3.2km/h 95% 0in /  0.0mm 14 W/m2
08:20 36 °F /  2.2 °C 34.7 °F /  1.5 °C 30.6in /  1034.5hPa Calm     95% 0in /  0.0mm 16 W/m2
08:25 36 °F /  2.2 °C 34.7 °F /  1.5 °C 30.6in /  1034.5hPa Calm   2mph /  3.2km/h 95% 0in /  0.0mm 19 W/m2
08:30 36 °F /  2.2 °C 34.7 °F /  1.5 °C 30.6in /  1034.5hPa Calm   1mph /  1.6km/h 95% 0in /  0.0mm 23 W/m2
08:35 36 °F /  2.2 °C 34.7 °F /  1.5 °C 30.6in /  1034.5hPa Calm     95% 0in /  0.0mm 25 W/m2
08:40 36.1 °F /  2.3 °C 34.9 °F /  1.6 °C 30.6in /  1034.9hPa Calm     95% 0in /  0.0mm 33 W/m2
08:45 36.1 °F /  2.3 °C 34.9 °F /  1.6 °C 30.6in /  1034.9hPa Calm   1mph /  1.6km/h 95% 0in /  0.0mm 42 W/m2
08:50 36.1 °F /  2.3 °C 34.9 °F /  1.6 °C 30.6in /  1034.9hPa Calm     95% 0in /  0.0mm 42 W/m2
08:55 36.3 °F /  2.4 °C 35.1 °F /  1.7 °C 30.6in /  1034.9hPa Calm     95% 0in /  0.0mm 46 W/m2
09:00 36.3 °F /  2.4 °C 35.2 °F /  1.8 °C 30.6in /  1034.9hPa Calm     96% 0in /  0.0mm 53 W/m2
09:05 36.7 °F /  2.6 °C 35.6 °F /  2 °C 30.6in /  1034.9hPa Calm     96% 0in /  0.0mm 63 W/m2
09:10 36.9 °F /  2.7 °C 35.8 °F /  2.1 °C 30.6in /  1034.9hPa East 2mph /  3.2km/h 4mph /  6.4km/h 96% 0in /  0.0mm 62 W/m2
09:15 37.2 °F /  2.9 °C 36.1 °F /  2.3 °C 30.6in /  1034.9hPa ESE 2mph /  3.2km/h 2mph /  3.2km/h 96% 0in /  0.0mm 63 W/m2
09:20 37.4 °F /  3 °C 36.3 °F /  2.4 °C 30.6in /  1034.5hPa ESE 0.9mph /  1.4km/h 4mph /  6.4km/h 96% 0in /  0.0mm 56 W/m2
09:25 37.6 °F /  3.1 °C 36.5 °F /  2.5 °C 30.6in /  1034.5hPa Calm     96% 0in /  0.0mm 65 W/m2
09:30 37.8 °F /  3.2 °C 36.7 °F /  2.6 °C 30.6in /  1034.5hPa Calm     96% 0in /  0.0mm 56 W/m2
09:35 37.9 °F /  3.3 °C 36.9 °F /  2.7 °C 30.6in /  1034.9hPa Calm     96% 0in /  0.0mm 47 W/m2
09:40 38.1 °F /  3.4 °C 37 °F /  2.8 °C 30.6in /  1034.5hPa Calm     96% 0in /  0.0mm 40 W/m2
09:45 38.3 °F /  3.5 °C 37.2 °F /  2.9 °C 30.6in /  1034.9hPa Calm     96% 0in /  0.0mm 39 W/m2
09:50 38.5 °F /  3.6 °C 37.4 °F /  3 °C 30.6in /  1034.9hPa WSW 2mph /  3.2km/h 2mph /  3.2km/h 96% 0in /  0.0mm 35 W/m2
09:55 38.5 °F /  3.6 °C 37.4 °F /  3 °C 30.6in /  1034.9hPa Calm   2mph /  3.2km/h 96% 0in /  0.0mm 33 W/m2
10:00 38.7 °F /  3.7 °C 37.6 °F /  3.1 °C 30.6in /  1034.9hPa Calm     96% 0in /  0.0mm 33 W/m2
10:05 38.8 °F /  3.8 °C 37.8 °F /  3.2 °C 30.6in /  1034.9hPa Calm   2mph /  3.2km/h 96% 0in /  0.0mm 35 W/m2
10:10 39 °F /  3.9 °C 37.8 °F /  3.2 °C 30.6in /  1034.9hPa Calm     95% 0in /  0.0mm 39 W/m2
10:15 39.2 °F /  4 °C 37.9 °F /  3.3 °C 30.6in /  1034.9hPa Calm     95% 0in /  0.0mm 40 W/m2
10:21 39.4 °F /  4.1 °C 38.1 °F /  3.4 °C 30.6in /  1034.9hPa Calm   2mph /  3.2km/h 95% 0in /  0.0mm 44 W/m2
10:26 39.6 °F /  4.2 °C 37.9 °F /  3.3 °C 30.6in /  1035.2hPa Calm     94% 0in /  0.0mm 47 W/m2
10:31 39.7 °F /  4.3 °C 38.1 °F /  3.4 °C 30.6in /  1035.2hPa Calm   2mph /  3.2km/h 94% 0in /  0.0mm 46 W/m2
10:36 39.9 °F /  4.4 °C 38.3 °F /  3.5 °C 30.6in /  1035.6hPa SW 0.9mph /  1.4km/h 2mph /  3.2km/h 94% 0in /  0.0mm 60 W/m2
10:41 40.1 °F /  4.5 °C 38.5 °F /  3.6 °C 30.6in /  1035.6hPa SW 0.9mph /  1.4km/h 1mph /  1.6km/h 94% 0in /  0.0mm 65 W/m2
10:46 40.5 °F /  4.7 °C 38.8 °F /  3.8 °C 30.6in /  1035.6hPa WSW 2mph /  3.2km/h 3mph /  4.8km/h 94% 0in /  0.0mm 63 W/m2
10:51 40.8 °F /  4.9 °C 39 °F /  3.9 °C 30.6in /  1035.6hPa NW 4mph /  6.4km/h 6mph /  9.7km/h 93% 0in /  0.0mm 88 W/m2
10:56 41.4 °F /  5.2 °C 39.2 °F /  4 °C 30.6in /  1035.6hPa WNW 0.9mph /  1.4km/h 3mph /  4.8km/h 92% 0in /  0.0mm 105 W/m2
11:01 41.7 °F /  5.4 °C 39 °F /  3.9 °C 30.6in /  1035.6hPa WSW 2.9mph /  4.7km/h 6mph /  9.7km/h 90% 0in /  0.0mm 97 W/m2
11:06 41.9 °F /  5.5 °C 38.8 °F /  3.8 °C 30.6in /  1035.2hPa WSW 0.9mph /  1.4km/h 4mph /  6.4km/h 89% 0in /  0.0mm 49 W/m2
11:11 42.1 °F /  5.6 °C 39 °F /  3.9 °C 30.6in /  1035.2hPa West 2mph /  3.2km/h 6mph /  9.7km/h 89% 0in /  0.0mm 70 W/m2
11:16 42.1 °F /  5.6 °C 38.8 °F /  3.8 °C 30.6in /  1035.2hPa West 2mph /  3.2km/h 5mph /  8km/h 88% 0in /  0.0mm 56 W/m2
11:21 42.3 °F /  5.7 °C 39 °F /  3.9 °C 30.6in /  1035.6hPa WNW 2mph /  3.2km/h 4mph /  6.4km/h 88% 0in /  0.0mm 65 W/m2
11:26 42.3 °F /  5.7 °C 39 °F /  3.9 °C 30.6in /  1035.6hPa West 2.9mph /  4.7km/h 3mph /  4.8km/h 88% 0in /  0.0mm 53 W/m2
11:31 42.4 °F /  5.8 °C 38.8 °F /  3.8 °C 30.6in /  1035.2hPa WNW 2mph /  3.2km/h 3mph /  4.8km/h 87% 0in /  0.0mm 79 W/m2
11:36 42.6 °F /  5.9 °C 39 °F /  3.9 °C 30.6in /  1035.6hPa West 2.9mph /  4.7km/h 4mph /  6.4km/h 87% 0in /  0.0mm 67 W/m2
11:41 42.8 °F /  6 °C 38.8 °F /  3.8 °C 30.6in /  1035.6hPa WSW 2.9mph /  4.7km/h 4mph /  6.4km/h 86% 0in /  0.0mm 77 W/m2
11:46 43 °F /  6.1 °C 39 °F /  3.9 °C 30.6in /  1035.2hPa West 0.9mph /  1.4km/h 4mph /  6.4km/h 86% 0in /  0.0mm 76 W/m2
11:51 43.2 °F /  6.2 °C 39.2 °F /  4 °C 30.6in /  1035.2hPa WSW 2mph /  3.2km/h 6mph /  9.7km/h 86% 0in /  0.0mm 81 W/m2
11:56 43.2 °F /  6.2 °C 39 °F /  3.9 °C 30.6in /  1035.2hPa WNW 2.9mph /  4.7km/h 3mph /  4.8km/h 85% 0in /  0.0mm 83 W/m2
12:01 43.3 °F /  6.3 °C 39.2 °F /  4 °C 30.6in /  1035.2hPa WSW 4mph /  6.4km/h 4mph /  6.4km/h 85% 0in /  0.0mm 97 W/m2
12:06 43.5 °F /  6.4 °C 39 °F /  3.9 °C 30.6in /  1035.2hPa WSW 2.9mph /  4.7km/h 6mph /  9.7km/h 84% 0in /  0.0mm 137 W/m2
12:11 43.9 °F /  6.6 °C 39 °F /  3.9 °C 30.6in /  1035.2hPa West 2.9mph /  4.7km/h 5mph /  8km/h 83% 0in /  0.0mm 149 W/m2
12:16 44.1 °F /  6.7 °C 38.8 °F /  3.8 °C 30.6in /  1035.2hPa WNW 0.9mph /  1.4km/h 3mph /  4.8km/h 82% 0in /  0.0mm 130 W/m2
12:21 44.2 °F /  6.8 °C 38.8 °F /  3.8 °C 30.6in /  1035.2hPa North 2.9mph /  4.7km/h 5mph /  8km/h 81% 0in /  0.0mm 132 W/m2
12:26 44.4 °F /  6.9 °C 37.9 °F /  3.3 °C 30.6in /  1035.2hPa Calm   6mph /  9.7km/h 78% 0in /  0.0mm 125 W/m2
12:31 44.8 °F /  7.1 °C 37.4 °F /  3 °C 30.6in /  1035.2hPa NW 0.9mph /  1.4km/h 3mph /  4.8km/h 75% 0in /  0.0mm 142 W/m2
12:36 45 °F /  7.2 °C 36.9 °F /  2.7 °C 30.6in /  1035.2hPa NE 0.9mph /  1.4km/h 4mph /  6.4km/h 73% 0in /  0.0mm 149 W/m2
12:41 45.1 °F /  7.3 °C 36.3 °F /  2.4 °C 30.6in /  1035.2hPa NNW 2mph /  3.2km/h 6mph /  9.7km/h 71% 0in /  0.0mm 151 W/m2
12:46 45.3 °F /  7.4 °C 36.5 °F /  2.5 °C 30.6in /  1035.2hPa NW 2mph /  3.2km/h 3mph /  4.8km/h 71% 0in /  0.0mm 155 W/m2
12:51 45.3 °F /  7.4 °C 36.9 °F /  2.7 °C 30.6in /  1035.2hPa ENE 2mph /  3.2km/h 4mph /  6.4km/h 72% 0in /  0.0mm 144 W/m2
12:56 45.5 °F /  7.5 °C 37.8 °F /  3.2 °C 30.6in /  1035.2hPa Calm   2mph /  3.2km/h 74% 0in /  0.0mm 120 W/m2
13:01 45.5 °F /  7.5 °C 38.7 °F /  3.7 °C 30.6in /  1035.2hPa WNW 2mph /  3.2km/h 2mph /  3.2km/h 77% 0in /  0.0mm 91 W/m2
13:06 45.3 °F /  7.4 °C 37.9 °F /  3.3 °C 30.6in /  1035.2hPa ESE 0.9mph /  1.4km/h 3mph /  4.8km/h 75% 0in /  0.0mm 102 W/m2
13:11 45.3 °F /  7.4 °C 36.9 °F /  2.7 °C 30.6in /  1035.2hPa WNW 2mph /  3.2km/h 4mph /  6.4km/h 72% 0in /  0.0mm 116 W/m2
13:16 45.3 °F /  7.4 °C 38.1 °F /  3.4 °C 30.6in /  1035.2hPa South 2mph /  3.2km/h 3mph /  4.8km/h 76% 0in /  0.0mm 109 W/m2
13:21 45.1 °F /  7.3 °C 37.9 °F /  3.3 °C 30.6in /  1035.2hPa Calm   1mph /  1.6km/h 76% 0in /  0.0mm 128 W/m2
13:26 45.3 °F /  7.4 °C 38.5 °F /  3.6 °C 30.6in /  1035.2hPa Calm     77% 0in /  0.0mm 134 W/m2
13:31 45.3 °F /  7.4 °C 38.1 °F /  3.4 °C 30.6in /  1035.2hPa ENE 2mph /  3.2km/h 2mph /  3.2km/h 76% 0in /  0.0mm 130 W/m2
13:36 45.3 °F /  7.4 °C 37.6 °F /  3.1 °C 30.6in /  1035.2hPa Calm   1mph /  1.6km/h 74% 0in /  0.0mm 98 W/m2
13:41 45.3 °F /  7.4 °C 36.9 °F /  2.7 °C 30.6in /  1035.2hPa WNW 4mph /  6.4km/h 7mph /  11.3km/h 72% 0in /  0.0mm 83 W/m2
13:46 45.3 °F /  7.4 °C 36.9 °F /  2.7 °C 30.6in /  1035.2hPa WNW 2.9mph /  4.7km/h 4mph /  6.4km/h 72% 0in /  0.0mm 102 W/m2
13:51 45.3 °F /  7.4 °C 37.6 °F /  3.1 °C 30.6in /  1035.2hPa WNW 2mph /  3.2km/h 4mph /  6.4km/h 74% 0in /  0.0mm 113 W/m2
13:56 45.1 °F /  7.3 °C 37.4 °F /  3 °C 30.6in /  1035.2hPa WNW 2mph /  3.2km/h 5mph /  8km/h 74% 0in /  0.0mm 95 W/m2
14:01 45 °F /  7.2 °C 37.2 °F /  2.9 °C 30.6in /  1034.9hPa WNW 7mph /  11.3km/h 7mph /  11.3km/h 74% 0in /  0.0mm 97 W/m2
14:06 45 °F /  7.2 °C 37.6 °F /  3.1 °C 30.6in /  1034.9hPa WNW 2mph /  3.2km/h 3mph /  4.8km/h 75% 0in /  0.0mm 114 W/m2
14:11 44.8 °F /  7.1 °C 36.7 °F /  2.6 °C 30.6in /  1034.9hPa SW 2.9mph /  4.7km/h 4mph /  6.4km/h 73% 0in /  0.0mm 95 W/m2
14:16 44.8 °F /  7.1 °C 36.7 °F /  2.6 °C 30.6in /  1034.9hPa West 2mph /  3.2km/h 4mph /  6.4km/h 73% 0in /  0.0mm 79 W/m2
14:21 44.8 °F /  7.1 °C 37 °F /  2.8 °C 30.6in /  1034.9hPa West 2mph /  3.2km/h 3mph /  4.8km/h 74% 0in /  0.0mm 72 W/m2
14:26 44.8 °F /  7.1 °C 37 °F /  2.8 °C 30.6in /  1034.9hPa WSW 2.9mph /  4.7km/h 4mph /  6.4km/h 74% 0in /  0.0mm 86 W/m2
14:31 44.6 °F /  7 °C 36.5 °F /  2.5 °C 30.6in /  1034.9hPa WNW 0.9mph /  1.4km/h 7mph /  11.3km/h 73% 0in /  0.0mm 83 W/m2
14:36 44.4 °F /  6.9 °C 36 °F /  2.2 °C 30.6in /  1034.9hPa West 2mph /  3.2km/h 3mph /  4.8km/h 72% 0in /  0.0mm 76 W/m2
14:41 44.2 °F /  6.8 °C 35.8 °F /  2.1 °C 30.6in /  1034.9hPa West 0.9mph /  1.4km/h 5mph /  8km/h 72% 0in /  0.0mm 70 W/m2
14:46 44.2 °F /  6.8 °C 35.8 °F /  2.1 °C 30.6in /  1035.2hPa WNW 2.9mph /  4.7km/h 3mph /  4.8km/h 72% 0in /  0.0mm 56 W/m2
14:51 44.1 °F /  6.7 °C 35.6 °F /  2 °C 30.6in /  1034.9hPa WSW 4mph /  6.4km/h 4mph /  6.4km/h 72% 0in /  0.0mm 46 W/m2
14:56 43.9 °F /  6.6 °C 35.4 °F /  1.9 °C 30.6in /  1034.9hPa West 2.9mph /  4.7km/h 3mph /  4.8km/h 72% 0in /  0.0mm 42 W/m2
15:01 43.7 °F /  6.5 °C 35.2 °F /  1.8 °C 30.6in /  1034.9hPa WSW 0.9mph /  1.4km/h 2mph /  3.2km/h 72% 0in /  0.0mm 33 W/m2
15:06 43.5 °F /  6.4 °C 35.4 °F /  1.9 °C 30.6in /  1034.9hPa West 2mph /  3.2km/h 3mph /  4.8km/h 73% 0in /  0.0mm 26 W/m2
15:11 43.3 °F /  6.3 °C 35.2 °F /  1.8 °C 30.6in /  1034.9hPa West 0.9mph /  1.4km/h 3mph /  4.8km/h 73% 0in /  0.0mm 30 W/m2
15:16 43.2 °F /  6.2 °C 35.4 °F /  1.9 °C 30.6in /  1034.9hPa Calm   1mph /  1.6km/h 74% 0in /  0.0mm 28 W/m2
15:21 43 °F /  6.1 °C 35.6 °F /  2 °C 30.6in /  1034.5hPa WSW 0.9mph /  1.4km/h 2mph /  3.2km/h 75% 0in /  0.0mm 23 W/m2
15:26 42.8 °F /  6 °C 35.8 °F /  2.1 °C 30.6in /  1034.5hPa Calm   1mph /  1.6km/h 76% 0in /  0.0mm 25 W/m2
15:31 42.4 °F /  5.8 °C 35.8 °F /  2.1 °C 30.6in /  1034.5hPa Calm   2mph /  3.2km/h 77% 0in /  0.0mm 23 W/m2
15:36 42.3 °F /  5.7 °C 36 °F /  2.2 °C 30.6in /  1034.5hPa Calm   1mph /  1.6km/h 78% 0in /  0.0mm 21 W/m2
15:41 42.1 °F /  5.6 °C 35.4 °F /  1.9 °C 30.6in /  1034.5hPa WSW 0.9mph /  1.4km/h 2mph /  3.2km/h 77% 0in /  0.0mm 19 W/m2
15:46 41.7 °F /  5.4 °C 35.4 °F /  1.9 °C 30.6in /  1034.5hPa Calm   1mph /  1.6km/h 78% 0in /  0.0mm 18 W/m2
15:51 41.5 °F /  5.3 °C 35.2 °F /  1.8 °C 30.6in /  1034.5hPa West 0.9mph /  1.4km/h 1mph /  1.6km/h 78% 0in /  0.0mm 18 W/m2
15:56 41.5 °F /  5.3 °C 34.5 °F /  1.4 °C 30.6in /  1034.5hPa West 2mph /  3.2km/h 2mph /  3.2km/h 76% 0in /  0.0mm 14 W/m2
16:01 41.7 °F /  5.4 °C 34.7 °F /  1.5 °C 30.6in /  1034.9hPa WSW 2mph /  3.2km/h 4mph /  6.4km/h 76% 0in /  0.0mm 12 W/m2
16:06 41.7 °F /  5.4 °C 34.3 °F /  1.3 °C 30.6in /  1034.9hPa WSW 0.9mph /  1.4km/h 2mph /  3.2km/h 75% 0in /  0.0mm 12 W/m2
16:11 41.5 °F /  5.3 °C 34.2 °F /  1.2 °C 30.6in /  1034.9hPa Calm   2mph /  3.2km/h 75% 0in /  0.0mm 12 W/m2
16:16 41.5 °F /  5.3 °C 34.2 °F /  1.2 °C 30.6in /  1034.9hPa West 2mph /  3.2km/h 3mph /  4.8km/h 75% 0in /  0.0mm 12 W/m2
16:21 41.5 °F /  5.3 °C 34.2 °F /  1.2 °C 30.6in /  1034.9hPa West 0.9mph /  1.4km/h 4mph /  6.4km/h 75% 0in /  0.0mm 14 W/m2
16:26 41.5 °F /  5.3 °C 34.5 °F /  1.4 °C 30.6in /  1034.5hPa West 0.9mph /  1.4km/h 1mph /  1.6km/h 76% 0in /  0.0mm 14 W/m2
16:31 41.2 °F /  5.1 °C 34.2 °F /  1.2 °C 30.6in /  1034.9hPa Calm   2mph /  3.2km/h 76% 0in /  0.0mm 9 W/m2
16:36 41 °F /  5 °C 34.3 °F /  1.3 °C 30.6in /  1034.9hPa Calm   2mph /  3.2km/h 77% 0in /  0.0mm 7 W/m2
16:41 40.8 °F /  4.9 °C 34.2 °F /  1.2 °C 30.6in /  1034.9hPa Calm   1mph /  1.6km/h 77% 0in /  0.0mm 5 W/m2
16:46 40.6 °F /  4.8 °C 34.3 °F /  1.3 °C 30.6in /  1034.9hPa Calm   1mph /  1.6km/h 78% 0in /  0.0mm 5 W/m2
16:51 40.5 °F /  4.7 °C 34.2 °F /  1.2 °C 30.6in /  1034.9hPa West 0.9mph /  1.4km/h 3mph /  4.8km/h 78% 0in /  0.0mm 0 W/m2
16:56 40.3 °F /  4.6 °C 33.6 °F /  0.9 °C 30.6in /  1035.2hPa WSW 4mph /  6.4km/h 4mph /  6.4km/h 77% 0in /  0.0mm 0 W/m2
17:01 40.3 °F /  4.6 °C 33.6 °F /  0.9 °C 30.6in /  1035.2hPa WSW 5mph /  8km/h 5mph /  8km/h 77% 0in /  0.0mm 0 W/m2
17:06 40.5 °F /  4.7 °C 33.4 °F /  0.8 °C 30.6in /  1034.9hPa WSW 0.9mph /  1.4km/h 3mph /  4.8km/h 76% 0in /  0.0mm 0 W/m2
17:11 40.3 °F /  4.6 °C 33.3 °F /  0.7 °C 30.6in /  1035.2hPa West 0.9mph /  1.4km/h 5mph /  8km/h 76% 0in /  0.0mm 0 W/m2
17:16 40.1 °F /  4.5 °C 33.1 °F /  0.6 °C 30.6in /  1035.2hPa West 2.9mph /  4.7km/h 3mph /  4.8km/h 76% 0in /  0.0mm 0 W/m2
17:22 40.1 °F /  4.5 °C 33.1 °F /  0.6 °C 30.6in /  1035.2hPa West 2.9mph /  4.7km/h 5mph /  8km/h 76% 0in /  0.0mm 0 W/m2
17:27 40.3 °F /  4.6 °C 33.1 °F /  0.6 °C 30.6in /  1035.2hPa West 0.9mph /  1.4km/h 3mph /  4.8km/h 75% 0in /  0.0mm 0 W/m2
17:32 40.3 °F /  4.6 °C 33.1 °F /  0.6 °C 30.6in /  1035.2hPa SW 0.9mph /  1.4km/h 6mph /  9.7km/h 75% 0in /  0.0mm 0 W/m2
17:37 40.1 °F /  4.5 °C 32.9 °F /  0.5 °C 30.6in /  1035.2hPa West 0.9mph /  1.4km/h 3mph /  4.8km/h 75% 0in /  0.0mm 0 W/m2
17:42 39.9 °F /  4.4 °C 32.9 °F /  0.5 °C 30.6in /  1035.2hPa Calm   1mph /  1.6km/h 76% 0in /  0.0mm 0 W/m2
17:47 39.6 °F /  4.2 °C 33.6 °F /  0.9 °C 30.6in /  1035.2hPa Calm     79% 0in /  0.0mm 0 W/m2
17:52 39 °F /  3.9 °C 33.1 °F /  0.6 °C 30.6in /  1035.2hPa Calm     79% 0in /  0.0mm 0 W/m2
17:57 38.7 °F /  3.7 °C 33.3 °F /  0.7 °C 30.6in /  1035.2hPa Calm     81% 0in /  0.0mm 0 W/m2
18:02 37.9 °F /  3.3 °C 32.9 °F /  0.5 °C 30.6in /  1035.2hPa West 0.9mph /  1.4km/h 2mph /  3.2km/h 82% 0in /  0.0mm 0 W/m2
18:07 37.6 °F /  3.1 °C 32.9 °F /  0.5 °C 30.6in /  1035.2hPa Calm   1mph /  1.6km/h 83% 0in /  0.0mm 0 W/m2
18:12 37 °F /  2.8 °C 32.7 °F /  0.4 °C 30.6in /  1035.2hPa Calm     84% 0in /  0.0mm 0 W/m2
18:17 36.9 °F /  2.7 °C 32.5 °F /  0.3 °C 30.6in /  1035.2hPa Calm     84% 0in /  0.0mm 0 W/m2
18:22 36.3 °F /  2.4 °C 32.2 °F /  0.1 °C 30.6in /  1035.2hPa Calm   1mph /  1.6km/h 85% 0in /  0.0mm 0 W/m2
18:27 36.1 °F /  2.3 °C 32.4 °F /  0.2 °C 30.6in /  1035.2hPa Calm     86% 0in /  0.0mm 0 W/m2
18:32 36 °F /  2.2 °C 32.2 °F /  0.1 °C 30.6in /  1035.2hPa Calm     86% 0in /  0.0mm 0 W/m2
18:37 35.8 °F /  2.1 °C 32 °F /  0 °C 30.6in /  1035.2hPa Calm     86% 0in /  0.0mm 0 W/m2
18:42 35.4 °F /  1.9 °C 32 °F /  0 °C 30.6in /  1035.2hPa Calm     87% 0in /  0.0mm 0 W/m2
18:47 35.2 °F /  1.8 °C 31.8 °F /  -0.1 °C 30.6in /  1035.2hPa Calm     87% 0in /  0.0mm 0 W/m2
18:52 35.1 °F /  1.7 °C 31.6 °F /  -0.2 °C 30.6in /  1035.2hPa Calm     87% 0in /  0.0mm 0 W/m2
18:57 34.9 °F /  1.6 °C 31.6 °F /  -0.2 °C 30.6in /  1035.6hPa Calm     88% 0in /  0.0mm 0 W/m2
19:02 34.7 °F /  1.5 °C 31.5 °F /  -0.3 °C 30.6in /  1035.6hPa Calm     88% 0in /  0.0mm 0 W/m2
19:07 34.5 °F /  1.4 °C 31.6 °F /  -0.2 °C 30.6in /  1035.6hPa Calm     89% 0in /  0.0mm 0 W/m2
19:12 34.3 °F /  1.3 °C 31.5 °F /  -0.3 °C 30.6in /  1035.6hPa West 0.9mph /  1.4km/h 1mph /  1.6km/h 89% 0in /  0.0mm 0 W/m2
19:17 34.3 °F /  1.3 °C 31.5 °F /  -0.3 °C 30.6in /  1035.6hPa Calm   1mph /  1.6km/h 89% 0in /  0.0mm 0 W/m2
19:22 34.2 °F /  1.2 °C 31.5 °F /  -0.3 °C 30.6in /  1035.6hPa Calm   1mph /  1.6km/h 90% 0in /  0.0mm 0 W/m2
19:27 34.2 °F /  1.2 °C 31.5 °F /  -0.3 °C 30.6in /  1035.6hPa Calm     90% 0in /  0.0mm 0 W/m2
19:32 34.2 °F /  1.2 °C 31.5 °F /  -0.3 °C 30.6in /  1035.6hPa Calm   1mph /  1.6km/h 90% 0in /  0.0mm 0 W/m2
19:37 34.2 °F /  1.2 °C 31.5 °F /  -0.3 °C 30.6in /  1035.6hPa Calm     90% 0in /  0.0mm 0 W/m2
19:42 34.2 °F /  1.2 °C 31.5 °F /  -0.3 °C 30.6in /  1035.9hPa Calm     90% 0in /  0.0mm 0 W/m2
19:47 34.2 °F /  1.2 °C 31.5 °F /  -0.3 °C 30.6in /  1035.9hPa Calm     90% 0in /  0.0mm 0 W/m2
19:52 34.2 °F /  1.2 °C 31.5 °F /  -0.3 °C 30.6in /  1035.9hPa Calm     90% 0in /  0.0mm 0 W/m2
19:57 34 °F /  1.1 °C 31.3 °F /  -0.4 °C 30.6in /  1035.9hPa Calm     90% 0in /  0.0mm 0 W/m2
20:02 34 °F /  1.1 °C 31.3 °F /  -0.4 °C 30.6in /  1035.9hPa Calm     90% 0in /  0.0mm 0 W/m2
20:07 33.6 °F /  0.9 °C 31.3 °F /  -0.4 °C 30.6in /  1035.9hPa Calm     91% 0in /  0.0mm 0 W/m2
20:12 33.6 °F /  0.9 °C 31.3 °F /  -0.4 °C 30.6in /  1035.9hPa Calm     91% 0in /  0.0mm 0 W/m2
20:17 33.6 °F /  0.9 °C 31.3 °F /  -0.4 °C 30.6in /  1035.9hPa Calm     91% 0in /  0.0mm 0 W/m2
20:22 33.4 °F /  0.8 °C 31.1 °F /  -0.5 °C 30.6in /  1035.9hPa Calm     91% 0in /  0.0mm 0 W/m2
20:27 33.3 °F /  0.7 °C 30.9 °F /  -0.6 °C 30.6in /  1035.9hPa Calm     91% 0in /  0.0mm 0 W/m2
20:32 33.1 °F /  0.6 °C 30.7 °F /  -0.7 °C 30.6in /  1035.9hPa Calm     91% 0in /  0.0mm 0 W/m2
20:37 32.9 °F /  0.5 °C 30.6 °F /  -0.8 °C 30.6in /  1035.9hPa Calm     91% 0in /  0.0mm 0 W/m2
20:42 32.7 °F /  0.4 °C 30.4 °F /  -0.9 °C 30.6in /  1035.9hPa Calm     91% 0in /  0.0mm 0 W/m2
20:47 32.7 °F /  0.4 °C 30.4 °F /  -0.9 °C 30.6in /  1035.9hPa Calm     91% 0in /  0.0mm 0 W/m2
20:52 32.5 °F /  0.3 °C 30.6 °F /  -0.8 °C 30.6in /  1035.9hPa Calm     92% 0in /  0.0mm 0 W/m2
20:57 32.5 °F /  0.3 °C 30.6 °F /  -0.8 °C 30.6in /  1035.9hPa Calm     92% 0in /  0.0mm 0 W/m2
21:02 32.4 °F /  0.2 °C 30.4 °F /  -0.9 °C 30.6in /  1036.2hPa Calm     92% 0in /  0.0mm 0 W/m2
21:07 32.4 °F /  0.2 °C 30.4 °F /  -0.9 °C 30.6in /  1036.2hPa Calm     92% 0in /  0.0mm 0 W/m2
21:12 32.2 °F /  0.1 °C 30.2 °F /  -1 °C 30.6in /  1036.2hPa Calm     92% 0in /  0.0mm 0 W/m2
21:17 32 °F /  0 °C 30 °F /  -1.1 °C 30.6in /  1036.2hPa Calm     92% 0in /  0.0mm 0 W/m2
21:22 31.8 °F /  -0.1 °C 29.8 °F /  -1.2 °C 30.6in /  1036.2hPa Calm     92% 0in /  0.0mm 0 W/m2
21:27 31.8 °F /  -0.1 °C 30 °F /  -1.1 °C 30.6in /  1036.2hPa Calm     93% 0in /  0.0mm 0 W/m2
21:32 31.6 °F /  -0.2 °C 29.7 °F /  -1.3 °C 30.6in /  1035.9hPa Calm     92% 0in /  0.0mm 0 W/m2
21:37 31.6 °F /  -0.2 °C 29.7 °F /  -1.3 °C 30.6in /  1035.9hPa Calm     92% 0in /  0.0mm 0 W/m2
21:42 31.5 °F /  -0.3 °C 29.7 °F /  -1.3 °C 30.6in /  1035.9hPa Calm     93% 0in /  0.0mm 0 W/m2
21:47 31.5 °F /  -0.3 °C 29.7 °F /  -1.3 °C 30.6in /  1035.9hPa Calm     93% 0in /  0.0mm 0 W/m2
21:52 31.5 °F /  -0.3 °C 29.7 °F /  -1.3 °C 30.6in /  1035.9hPa Calm     93% 0in /  0.0mm 0 W/m2
21:57 31.5 °F /  -0.3 °C 29.7 °F /  -1.3 °C 30.6in /  1035.9hPa Calm     93% 0in /  0.0mm 0 W/m2
22:02 31.3 °F /  -0.4 °C 29.5 °F /  -1.4 °C 30.6in /  1035.9hPa Calm     93% 0in /  0.0mm 0 W/m2
22:07 31.3 °F /  -0.4 °C 29.5 °F /  -1.4 °C 30.6in /  1035.9hPa Calm     93% 0in /  0.0mm 0 W/m2
22:12 30.9 °F /  -0.6 °C 29.1 °F /  -1.6 °C 30.6in /  1035.9hPa Calm     93% 0in /  0.0mm 0 W/m2
22:17 30.9 °F /  -0.6 °C 29.1 °F /  -1.6 °C 30.6in /  1035.9hPa Calm     93% 0in /  0.0mm 0 W/m2
22:22 30.9 °F /  -0.6 °C 29.1 °F /  -1.6 °C 30.6in /  1035.9hPa Calm     93% 0in /  0.0mm 0 W/m2
22:27 30.9 °F /  -0.6 °C 29.5 °F /  -1.4 °C 30.6in /  1035.9hPa Calm     94% 0in /  0.0mm 0 W/m2
22:32 30.9 °F /  -0.6 °C 29.5 °F /  -1.4 °C 30.6in /  1035.9hPa Calm     94% 0in /  0.0mm 0 W/m2
22:37 30.9 °F /  -0.6 °C 29.5 °F /  -1.4 °C 30.6in /  1035.9hPa Calm     94% 0in /  0.0mm 0 W/m2
22:42 30.9 °F /  -0.6 °C 29.5 °F /  -1.4 °C 30.6in /  1035.9hPa Calm     94% 0in /  0.0mm 0 W/m2
22:47 30.7 °F /  -0.7 °C 29.3 °F /  -1.5 °C 30.6in /  1035.9hPa Calm     94% 0in /  0.0mm 0 W/m2
22:52 30.7 °F /  -0.7 °C 29.3 °F /  -1.5 °C 30.6in /  1035.9hPa Calm     94% 0in /  0.0mm 0 W/m2
22:57 30.7 °F /  -0.7 °C 29.3 °F /  -1.5 °C 30.6in /  1035.9hPa Calm     94% 0in /  0.0mm 0 W/m2
23:02 30.6 °F /  -0.8 °C 29.1 °F /  -1.6 °C 30.6in /  1035.9hPa Calm     94% 0in /  0.0mm 0 W/m2
23:07 30.6 °F /  -0.8 °C 29.1 °F /  -1.6 °C 30.6in /  1035.9hPa Calm     94% 0in /  0.0mm 0 W/m2
23:12 30.6 °F /  -0.8 °C 29.1 °F /  -1.6 °C 30.6in /  1035.9hPa Calm     94% 0in /  0.0mm 0 W/m2
23:17 30.6 °F /  -0.8 °C 29.1 °F /  -1.6 °C 30.6in /  1035.9hPa Calm     94% 0in /  0.0mm 0 W/m2
23:22 30.6 °F /  -0.8 °C 29.1 °F /  -1.6 °C 30.6in /  1035.9hPa Calm     94% 0in /  0.0mm 0 W/m2
23:27 30.6 °F /  -0.8 °C 29.1 °F /  -1.6 °C 30.6in /  1035.9hPa Calm     94% 0in /  0.0mm 0 W/m2
23:32 30.6 °F /  -0.8 °C 29.1 °F /  -1.6 °C 30.6in /  1035.9hPa Calm     94% 0in /  0.0mm 0 W/m2
23:37 30.4 °F /  -0.9 °C 28.9 °F /  -1.7 °C 30.6in /  1035.9hPa Calm     94% 0in /  0.0mm 0 W/m2
23:42 30.2 °F /  -1 °C 28.8 °F /  -1.8 °C 30.6in /  1035.9hPa Calm     94% 0in /  0.0mm 0 W/m2
23:47 30 °F /  -1.1 °C 28.6 °F /  -1.9 °C 30.6in /  1035.9hPa Calm     94% 0in /  0.0mm 0 W/m2
23:52 30 °F /  -1.1 °C 28.6 °F /  -1.9 °C 30.6in /  1035.9hPa Calm     94% 0in /  0.0mm 0 W/m2
23:57 30 °F /  -1.1 °C 28.6 °F /  -1.9 °C 30.6in /  1035.9hPa Calm     94% 0in /  0.0mm 0 W/m2
Juneau County Weather
Compliments of Weather Underground - 2 mb